createdAt,value
2018-11-25T01:25:03.412Z,18.30
2018-11-25T01:42:27.596Z,17.42
2018-11-25T01:48:07.637Z,17.20
2018-11-25T01:59:14.378Z,18.27
2018-11-25T02:06:05.505Z,20.80
2018-11-25T02:19:20.225Z,18.87
2018-11-25T02:24:26.212Z,19.37
2018-11-25T02:29:35.015Z,19.70
2018-11-25T02:34:38.344Z,20.60
2018-11-25T02:39:41.351Z,20.20
2018-11-25T02:44:44.395Z,20.13
2018-11-25T02:49:47.434Z,16.67
2018-11-25T02:54:50.463Z,17.57
2018-11-25T02:59:53.516Z,16.00
2018-11-25T03:04:56.559Z,16.97
2018-11-25T03:09:59.593Z,16.40
2018-11-25T03:15:02.721Z,16.23
2018-11-25T03:20:09.429Z,16.17
2018-11-25T03:25:16.268Z,14.63
2018-11-25T03:30:21.026Z,15.63
2018-11-25T03:35:24.064Z,14.13
2018-11-25T03:40:27.111Z,13.70
2018-11-25T03:45:30.247Z,13.53
2018-11-25T03:50:34.424Z,12.63
2018-11-25T03:55:37.737Z,13.27
2018-11-25T04:00:40.890Z,11.60
2018-11-25T04:05:44.246Z,13.10
2018-11-25T04:10:47.505Z,11.90
2018-11-25T04:15:50.744Z,11.30
2018-11-25T04:20:53.855Z,11.40
2018-11-25T04:25:57.160Z,11.10
2018-11-25T04:31:00.342Z,11.33
2018-11-25T04:36:03.476Z,12.40
2018-11-25T04:41:06.547Z,11.33
2018-11-25T04:46:10.104Z,10.70
2018-11-25T04:51:13.148Z,10.27
2018-11-25T04:56:16.260Z,10.30
2018-11-25T05:01:19.540Z,11.37
2018-11-25T05:06:22.679Z,11.13
2018-11-25T05:11:25.806Z,9.70
2018-11-25T05:16:29.486Z,10.53
2018-11-25T05:21:32.639Z,9.80
2018-11-25T05:26:35.837Z,9.20
2018-11-25T05:31:39.158Z,9.00
2018-11-25T05:36:42.388Z,9.07
2018-11-25T05:41:45.534Z,9.60
2018-11-25T05:46:48.740Z,8.87
2018-11-25T05:51:52.440Z,9.10
2018-11-25T05:56:56.263Z,9.50
2018-11-25T06:01:59.494Z,8.77
2018-11-25T06:07:02.630Z,8.80
2018-11-25T06:12:07.358Z,10.03
2018-11-25T06:17:10.502Z,8.70
2018-11-25T06:22:13.542Z,9.60
2018-11-25T06:27:16.724Z,9.37
2018-11-25T06:32:20.128Z,9.50
2018-11-25T06:37:25.721Z,10.20
2018-11-25T06:42:28.923Z,12.00
2018-11-25T06:47:32.017Z,10.27
2018-11-25T06:52:35.107Z,9.37
2018-11-25T06:57:38.244Z,9.20
2018-11-25T07:02:41.611Z,8.67
2018-11-25T07:07:44.692Z,8.63
2018-11-25T07:12:49.399Z,9.00
2018-11-25T07:17:52.528Z,8.83
2018-11-25T07:22:55.852Z,8.33
2018-11-25T07:27:58.905Z,8.50
2018-11-25T07:33:01.945Z,9.73
2018-11-25T07:38:05.605Z,8.90
2018-11-25T07:43:08.957Z,8.80
2018-11-25T07:48:12.226Z,9.00
2018-11-25T07:53:15.442Z,9.93
2018-11-25T07:58:18.505Z,8.97
2018-11-25T08:03:21.608Z,9.40
2018-11-25T08:08:24.744Z,8.87
2018-11-25T08:13:27.883Z,10.90
2018-11-25T08:18:31.094Z,10.60
2018-11-25T08:23:34.195Z,10.40
2018-11-25T08:28:37.309Z,9.50
2018-11-25T08:33:40.442Z,10.70
2018-11-25T08:38:43.485Z,10.90
2018-11-25T08:43:46.607Z,10.97
2018-11-25T08:48:49.654Z,10.67
2018-11-25T08:53:52.729Z,11.00
2018-11-25T08:58:55.826Z,10.93
2018-11-25T09:03:58.960Z,10.40
2018-11-25T09:09:02.108Z,11.10
2018-11-25T09:14:05.292Z,11.07
2018-11-25T09:19:08.377Z,11.40
2018-11-25T09:24:11.488Z,12.27
2018-11-25T09:29:14.603Z,14.50
2018-11-25T09:34:17.685Z,11.70
2018-11-25T09:39:20.811Z,13.13
2018-11-25T09:44:23.903Z,13.20
2018-11-25T09:49:26.983Z,12.70
2018-11-25T09:54:30.084Z,13.43
2018-11-25T09:59:33.181Z,12.57
2018-11-25T10:04:36.394Z,16.77
2018-11-25T10:09:39.527Z,13.63
2018-11-25T10:14:42.680Z,13.27
2018-11-25T10:19:45.768Z,12.47
2018-11-25T10:24:48.870Z,12.83
2018-11-25T10:29:51.975Z,12.87
2018-11-25T10:34:54.979Z,13.70
2018-11-25T10:39:58.035Z,13.33
2018-11-25T10:45:01.098Z,13.73
2018-11-25T10:50:04.428Z,14.70
2018-11-25T10:55:09.926Z,21.17
2018-11-25T11:00:29.388Z,12.33
2018-11-25T11:05:38.092Z,16.27
2018-11-25T11:10:41.172Z,14.20
2018-11-25T11:15:44.230Z,13.70
2018-11-25T11:20:47.329Z,13.20
2018-11-25T11:25:50.369Z,12.10
2018-11-25T11:30:53.435Z,13.87
2018-11-25T11:35:56.489Z,15.07
2018-11-25T11:40:59.589Z,13.10
2018-11-25T11:46:02.700Z,12.40
2018-11-25T11:51:05.828Z,11.57
2018-11-25T11:56:08.908Z,13.57
2018-11-25T12:01:12.566Z,12.13
2018-11-25T12:06:15.637Z,11.10
2018-11-25T12:11:18.927Z,12.20
2018-11-25T12:16:21.942Z,13.37
2018-11-25T12:21:25.316Z,13.07
2018-11-25T12:26:28.451Z,12.70
2018-11-25T12:31:31.777Z,11.50
2018-11-25T12:36:34.823Z,11.43
2018-11-25T12:41:38.064Z,11.80
2018-11-25T12:46:41.305Z,13.30
2018-11-25T12:51:45.158Z,13.07
2018-11-25T12:56:51.820Z,12.63
2018-11-25T13:01:51.882Z,15.50
2018-11-25T13:06:54.956Z,13.80
2018-11-25T13:11:58.141Z,13.67
2018-11-25T13:17:01.249Z,14.00
2018-11-25T13:22:04.584Z,14.60
2018-11-25T13:27:08.446Z,15.20
2018-11-25T13:32:12.265Z,16.13
2018-11-25T13:37:15.383Z,15.70
2018-11-25T13:42:18.484Z,16.23
2018-11-25T13:47:21.609Z,15.07
2018-11-25T13:52:24.775Z,17.10
2018-11-25T13:57:27.870Z,16.87
2018-11-25T14:02:30.968Z,16.83
2018-11-25T14:07:34.043Z,16.20
2018-11-25T14:12:37.207Z,15.53
2018-11-25T14:17:40.368Z,18.67
2018-11-25T14:22:43.479Z,16.80
2018-11-25T14:27:49.036Z,15.87
2018-11-25T14:32:52.224Z,17.57
2018-11-25T14:37:55.273Z,18.90
2018-11-25T14:42:58.383Z,19.27
2018-11-25T14:48:01.437Z,20.20
2018-11-25T14:53:04.918Z,18.03
2018-11-25T14:58:07.993Z,19.07
2018-11-25T15:03:11.026Z,19.37
2018-11-25T15:08:19.560Z,17.93
2018-11-25T15:13:22.621Z,19.10
2018-11-25T15:18:25.663Z,18.97
2018-11-25T15:23:28.688Z,19.03
2018-11-25T15:28:31.716Z,17.40
2018-11-25T15:33:35.406Z,18.60
2018-11-25T15:38:38.455Z,18.17
2018-11-25T15:43:41.527Z,21.20
2018-11-25T15:48:44.575Z,19.47
2018-11-25T15:53:47.639Z,25.67
2018-11-25T15:58:50.716Z,20.80
2018-11-25T16:03:53.792Z,21.50
2018-11-25T16:08:56.886Z,18.40
2018-11-25T16:13:59.940Z,19.40
2018-11-25T16:19:03.213Z,21.20
2018-11-25T16:24:07.779Z,21.23
2018-11-25T16:29:13.937Z,21.00
2018-11-25T16:34:17.021Z,20.70
2018-11-25T16:39:20.143Z,18.10
2018-11-25T16:44:23.272Z,18.57
2018-11-25T16:49:26.328Z,21.07
2018-11-25T16:54:29.407Z,19.77
2018-11-25T16:59:32.479Z,20.07
2018-11-25T17:04:35.550Z,19.97
2018-11-25T17:09:38.662Z,20.60
2018-11-25T17:14:41.890Z,19.37
2018-11-25T17:19:44.968Z,17.77
2018-11-25T17:24:48.235Z,18.33
2018-11-25T17:29:51.331Z,18.73
2018-11-25T17:34:54.393Z,18.73
2018-11-25T17:39:57.524Z,19.60
2018-11-25T17:45:00.660Z,26.53
2018-11-25T17:50:07.872Z,20.90
2018-11-25T17:55:12.160Z,22.30
2018-11-25T18:00:38.548Z,19.53
2018-11-25T18:05:41.681Z,20.60
2018-11-25T18:10:44.748Z,29.07
2018-11-25T18:15:48.368Z,23.90
2018-11-25T18:20:56.517Z,19.80
2018-11-25T18:25:59.748Z,20.17
2018-11-25T18:31:02.912Z,22.20
2018-11-25T18:36:08.665Z,19.87
2018-11-25T18:41:11.790Z,19.20
2018-11-25T18:46:14.858Z,19.17
2018-11-25T18:51:18.160Z,21.23
2018-11-25T18:56:21.226Z,18.33
2018-11-25T19:02:10.448Z,17.97
2018-11-25T19:07:13.671Z,20.20
2018-11-25T19:12:16.752Z,21.23
2018-11-25T19:17:19.812Z,19.40
2018-11-25T19:22:23.141Z,18.67
2018-11-25T19:27:26.291Z,19.20
2018-11-25T19:32:29.388Z,20.00
2018-11-25T19:37:32.685Z,21.20
2018-11-25T19:42:36.126Z,21.00
2018-11-25T19:47:39.246Z,20.33
2018-11-25T19:52:42.317Z,22.80
2018-11-25T19:57:45.406Z,21.30
2018-11-25T20:02:49.399Z,21.80
2018-11-25T20:07:52.132Z,21.50
2018-11-25T20:12:57.657Z,21.33
2018-11-25T20:18:01.309Z,21.90
2018-11-25T20:23:05.848Z,21.53
2018-11-25T20:28:08.972Z,21.10
2018-11-25T20:33:17.899Z,21.07
2018-11-25T20:38:26.521Z,20.40
2018-11-25T20:43:29.619Z,22.87
2018-11-25T20:48:32.684Z,21.10
2018-11-25T20:53:41.481Z,19.97
2018-11-25T20:58:44.572Z,22.10
2018-11-25T21:03:47.672Z,21.70
2018-11-25T21:08:50.724Z,20.10
2018-11-25T21:13:53.811Z,20.33
2018-11-25T21:18:56.868Z,21.23
2018-11-25T21:23:59.891Z,20.57
2018-11-25T21:29:03.048Z,19.03
2018-11-25T21:34:06.105Z,20.97
2018-11-25T21:39:09.857Z,20.93
2018-11-25T21:44:12.935Z,20.90
2018-11-25T21:49:16.006Z,21.37
2018-11-25T21:54:19.074Z,19.60
2018-11-25T21:59:22.146Z,19.97
2018-11-25T22:04:25.312Z,22.80
2018-11-25T22:09:28.348Z,20.07
2018-11-25T22:14:32.185Z,20.47
2018-11-25T22:19:35.189Z,21.40
2018-11-25T22:24:38.361Z,22.17
2018-11-25T22:29:41.502Z,23.33
2018-11-25T22:34:44.613Z,22.10
2018-11-25T22:39:47.727Z,21.93
2018-11-25T22:44:50.819Z,19.50
2018-11-25T22:49:53.920Z,19.77
2018-11-25T22:54:56.996Z,20.40
2018-11-25T23:00:00.041Z,21.73
2018-11-25T23:05:20.147Z,18.97
2018-11-25T23:10:23.195Z,21.33
2018-11-25T23:15:26.348Z,20.97
2018-11-25T23:20:29.424Z,19.47
2018-11-25T23:25:32.479Z,21.47
2018-11-25T23:30:35.534Z,20.23
2018-11-25T23:35:38.593Z,21.37
2018-11-25T23:40:41.655Z,20.07
2018-11-25T23:45:44.743Z,21.20
2018-11-25T23:50:47.874Z,20.37
2018-11-25T23:55:51.169Z,21.27
